sensor_id;sensor_type;location;lat;lon;timestamp;P1;durP1;ratioP1;P2;durP2;ratioP2
82304;SDS011;71914;47.382;8.168;2024-01-27T00:03:47;2.15;;;1.33;;
82304;SDS011;71914;47.382;8.168;2024-01-27T00:06:13;1.95;;;1.05;;
82304;SDS011;71914;47.382;8.168;2024-01-27T00:08:39;2.10;;;1.20;;
82304;SDS011;71914;47.382;8.168;2024-01-27T00:11:05;2.03;;;1.05;;
82304;SDS011;71914;47.382;8.168;2024-01-27T00:13:30;2.50;;;1.00;;
82304;SDS011;71914;47.382;8.168;2024-01-27T00:15:57;1.70;;;1.00;;
82304;SDS011;71914;47.382;8.168;2024-01-27T00:18:23;2.45;;;0.95;;
82304;SDS011;71914;47.382;8.168;2024-01-27T00:20:48;3.38;;;1.60;;
82304;SDS011;71914;47.382;8.168;2024-01-27T00:23:14;3.25;;;1.48;;
82304;SDS011;71914;47.382;8.168;2024-01-27T00:25:40;1.73;;;1.25;;
82304;SDS011;71914;47.382;8.168;2024-01-27T00:28:06;1.88;;;1.10;;
82304;SDS011;71914;47.382;8.168;2024-01-27T00:30:31;2.20;;;1.52;;
82304;SDS011;71914;47.382;8.168;2024-01-27T00:32:58;1.08;;;0.85;;
82304;SDS011;71914;47.382;8.168;2024-01-27T00:35:24;2.78;;;1.30;;
82304;SDS011;71914;47.382;8.168;2024-01-27T00:37:49;1.52;;;1.00;;
82304;SDS011;71914;47.382;8.168;2024-01-27T00:40:15;1.65;;;1.00;;
82304;SDS011;71914;47.382;8.168;2024-01-27T00:42:41;1.25;;;0.88;;
82304;SDS011;71914;47.382;8.168;2024-01-27T00:45:07;2.08;;;0.80;;
82304;SDS011;71914;47.382;8.168;2024-01-27T00:47:33;1.88;;;1.10;;
82304;SDS011;71914;47.382;8.168;2024-01-27T00:50:02;2.63;;;1.10;;
82304;SDS011;71914;47.382;8.168;2024-01-27T00:52:28;3.72;;;1.25;;
82304;SDS011;71914;47.382;8.168;2024-01-27T00:54:53;1.63;;;0.98;;
82304;SDS011;71914;47.382;8.168;2024-01-27T00:57:19;2.17;;;1.02;;
82304;SDS011;71914;47.382;8.168;2024-01-27T00:59:45;3.03;;;1.38;;
82304;SDS011;71914;47.382;8.168;2024-01-27T01:02:11;1.98;;;1.23;;
82304;SDS011;71914;47.382;8.168;2024-01-27T01:04:36;2.95;;;1.00;;
82304;SDS011;71914;47.382;8.168;2024-01-27T01:07:03;2.35;;;1.48;;
82304;SDS011;71914;47.382;8.168;2024-01-27T01:11:54;1.83;;;1.00;;
82304;SDS011;71914;47.382;8.168;2024-01-27T01:14:20;1.73;;;1.08;;
82304;SDS011;71914;47.382;8.168;2024-01-27T01:16:46;2.35;;;1.20;;
82304;SDS011;71914;47.382;8.168;2024-01-27T01:19:11;2.65;;;1.10;;
82304;SDS011;71914;47.382;8.168;2024-01-27T01:21:37;3.15;;;1.35;;
82304;SDS011;71914;47.382;8.168;2024-01-27T01:24:04;2.13;;;1.35;;
82304;SDS011;71914;47.382;8.168;2024-01-27T01:26:30;3.88;;;1.38;;
82304;SDS011;71914;47.382;8.168;2024-01-27T01:28:55;3.95;;;1.58;;
82304;SDS011;71914;47.382;8.168;2024-01-27T01:31:21;2.80;;;1.40;;
82304;SDS011;71914;47.382;8.168;2024-01-27T01:33:47;4.10;;;1.60;;
82304;SDS011;71914;47.382;8.168;2024-01-27T01:36:12;3.15;;;1.40;;
82304;SDS011;71914;47.382;8.168;2024-01-27T01:38:38;2.85;;;1.35;;
82304;SDS011;71914;47.382;8.168;2024-01-27T01:41:05;2.25;;;1.23;;
82304;SDS011;71914;47.382;8.168;2024-01-27T01:43:30;1.88;;;1.00;;
82304;SDS011;71914;47.382;8.168;2024-01-27T01:45:56;2.22;;;1.10;;
82304;SDS011;71914;47.382;8.168;2024-01-27T01:48:22;2.83;;;1.35;;
82304;SDS011;71914;47.382;8.168;2024-01-27T01:50:48;2.22;;;1.23;;
82304;SDS011;71914;47.382;8.168;2024-01-27T01:53:15;4.07;;;1.55;;
82304;SDS011;71914;47.382;8.168;2024-01-27T01:55:40;2.58;;;1.10;;
82304;SDS011;71914;47.382;8.168;2024-01-27T01:58:07;2.15;;;1.00;;
82304;SDS011;71914;47.382;8.168;2024-01-27T02:00:34;4.93;;;1.50;;
82304;SDS011;71914;47.382;8.168;2024-01-27T02:02:59;1.58;;;1.00;;
82304;SDS011;71914;47.382;8.168;2024-01-27T02:05:25;1.80;;;1.27;;
82304;SDS011;71914;47.382;8.168;2024-01-27T02:07:51;3.55;;;1.55;;
82304;SDS011;71914;47.382;8.168;2024-01-27T02:10:17;4.00;;;1.33;;
82304;SDS011;71914;47.382;8.168;2024-01-27T02:12:43;3.42;;;1.45;;
82304;SDS011;71914;47.382;8.168;2024-01-27T02:15:11;2.63;;;1.15;;
82304;SDS011;71914;47.382;8.168;2024-01-27T02:17:38;0.98;;;0.77;;
82304;SDS011;71914;47.382;8.168;2024-01-27T02:20:04;2.13;;;1.30;;
82304;SDS011;71914;47.382;8.168;2024-01-27T02:22:31;3.13;;;1.70;;
82304;SDS011;71914;47.382;8.168;2024-01-27T02:24:58;4.00;;;2.25;;
82304;SDS011;71914;47.382;8.168;2024-01-27T02:27:24;3.42;;;2.10;;
82304;SDS011;71914;47.382;8.168;2024-01-27T02:29:50;2.45;;;1.55;;
82304;SDS011;71914;47.382;8.168;2024-01-27T02:32:15;3.60;;;1.60;;
82304;SDS011;71914;47.382;8.168;2024-01-27T02:34:41;4.50;;;1.73;;
82304;SDS011;71914;47.382;8.168;2024-01-27T02:37:06;3.72;;;1.58;;
82304;SDS011;71914;47.382;8.168;2024-01-27T02:39:32;3.05;;;1.55;;
82304;SDS011;71914;47.382;8.168;2024-01-27T02:41:59;2.47;;;1.42;;
82304;SDS011;71914;47.382;8.168;2024-01-27T02:44:25;2.17;;;1.20;;
82304;SDS011;71914;47.382;8.168;2024-01-27T02:46:50;1.75;;;1.25;;
82304;SDS011;71914;47.382;8.168;2024-01-27T02:49:16;3.42;;;1.35;;
82304;SDS011;71914;47.382;8.168;2024-01-27T02:51:42;1.67;;;1.17;;
82304;SDS011;71914;47.382;8.168;2024-01-27T02:54:07;2.58;;;1.38;;
82304;SDS011;71914;47.382;8.168;2024-01-27T02:56:33;2.88;;;1.60;;
82304;SDS011;71914;47.382;8.168;2024-01-27T02:59:00;2.83;;;1.40;;
82304;SDS011;71914;47.382;8.168;2024-01-27T03:01:25;2.38;;;1.50;;
82304;SDS011;71914;47.382;8.168;2024-01-27T03:03:51;2.92;;;1.77;;
82304;SDS011;71914;47.382;8.168;2024-01-27T03:06:17;4.90;;;1.73;;
82304;SDS011;71914;47.382;8.168;2024-01-27T03:08:42;2.75;;;1.75;;
82304;SDS011;71914;47.382;8.168;2024-01-27T03:11:08;3.05;;;1.77;;
82304;SDS011;71914;47.382;8.168;2024-01-27T03:13:34;3.75;;;1.67;;
82304;SDS011;71914;47.382;8.168;2024-01-27T03:16:01;3.88;;;1.80;;
82304;SDS011;71914;47.382;8.168;2024-01-27T03:20:52;1.90;;;1.08;;
82304;SDS011;71914;47.382;8.168;2024-01-27T03:23:17;2.90;;;1.40;;
82304;SDS011;71914;47.382;8.168;2024-01-27T03:25:43;2.97;;;1.40;;
82304;SDS011;71914;47.382;8.168;2024-01-27T03:28:09;4.28;;;1.08;;
82304;SDS011;71914;47.382;8.168;2024-01-27T03:30:34;8.65;;;2.40;;
82304;SDS011;71914;47.382;8.168;2024-01-27T03:33:01;2.80;;;1.80;;
82304;SDS011;71914;47.382;8.168;2024-01-27T03:37:53;2.20;;;1.40;;
82304;SDS011;71914;47.382;8.168;2024-01-27T03:40:18;2.88;;;1.25;;
82304;SDS011;71914;47.382;8.168;2024-01-27T03:42:44;4.53;;;1.67;;
82304;SDS011;71914;47.382;8.168;2024-01-27T03:45:09;4.20;;;1.60;;
82304;SDS011;71914;47.382;8.168;2024-01-27T03:47:35;2.00;;;1.35;;
82304;SDS011;71914;47.382;8.168;2024-01-27T03:50:02;3.13;;;1.52;;
82304;SDS011;71914;47.382;8.168;2024-01-27T03:52:28;2.30;;;1.40;;
82304;SDS011;71914;47.382;8.168;2024-01-27T03:54:53;2.25;;;1.35;;
82304;SDS011;71914;47.382;8.168;2024-01-27T03:57:19;3.50;;;1.52;;
82304;SDS011;71914;47.382;8.168;2024-01-27T03:59:45;3.28;;;1.73;;
82304;SDS011;71914;47.382;8.168;2024-01-27T04:02:10;4.60;;;1.52;;
82304;SDS011;71914;47.382;8.168;2024-01-27T04:04:36;2.45;;;1.35;;
82304;SDS011;71914;47.382;8.168;2024-01-27T04:07:03;2.17;;;1.48;;
82304;SDS011;71914;47.382;8.168;2024-01-27T04:11:54;7.32;;;1.77;;
82304;SDS011;71914;47.382;8.168;2024-01-27T04:14:20;3.45;;;1.48;;
82304;SDS011;71914;47.382;8.168;2024-01-27T04:16:45;2.83;;;1.95;;
82304;SDS011;71914;47.382;8.168;2024-01-27T04:19:11;5.30;;;1.70;;
82304;SDS011;71914;47.382;8.168;2024-01-27T04:21:36;3.22;;;1.80;;
82304;SDS011;71914;47.382;8.168;2024-01-27T04:24:04;3.25;;;1.70;;
82304;SDS011;71914;47.382;8.168;2024-01-27T04:26:30;4.25;;;1.90;;
82304;SDS011;71914;47.382;8.168;2024-01-27T04:28:55;1.83;;;1.38;;
82304;SDS011;71914;47.382;8.168;2024-01-27T04:31:21;4.55;;;1.95;;
82304;SDS011;71914;47.382;8.168;2024-01-27T04:33:46;3.03;;;1.67;;
82304;SDS011;71914;47.382;8.168;2024-01-27T04:36:12;6.95;;;2.40;;
82304;SDS011;71914;47.382;8.168;2024-01-27T04:38:37;4.07;;;2.05;;
82304;SDS011;71914;47.382;8.168;2024-01-27T04:41:05;4.30;;;2.33;;
82304;SDS011;71914;47.382;8.168;2024-01-27T04:45:56;3.72;;;2.05;;
82304;SDS011;71914;47.382;8.168;2024-01-27T04:48:21;4.63;;;2.25;;
82304;SDS011;71914;47.382;8.168;2024-01-27T04:50:47;2.83;;;2.15;;
82304;SDS011;71914;47.382;8.168;2024-01-27T04:53:13;4.28;;;2.35;;
82304;SDS011;71914;47.382;8.168;2024-01-27T04:55:39;5.65;;;2.72;;
82304;SDS011;71914;47.382;8.168;2024-01-27T04:58:06;7.32;;;2.90;;
82304;SDS011;71914;47.382;8.168;2024-01-27T05:00:32;5.20;;;2.55;;
82304;SDS011;71914;47.382;8.168;2024-01-27T05:02:58;6.47;;;2.92;;
82304;SDS011;71914;47.382;8.168;2024-01-27T05:05:28;5.88;;;2.65;;
82304;SDS011;71914;47.382;8.168;2024-01-27T05:07:54;7.82;;;3.60;;
82304;SDS011;71914;47.382;8.168;2024-01-27T05:10:19;10.20;;;3.70;;
82304;SDS011;71914;47.382;8.168;2024-01-27T05:12:46;4.50;;;2.72;;
82304;SDS011;71914;47.382;8.168;2024-01-27T05:15:13;5.28;;;2.85;;
82304;SDS011;71914;47.382;8.168;2024-01-27T05:17:39;6.40;;;2.60;;
82304;SDS011;71914;47.382;8.168;2024-01-27T05:20:05;8.20;;;3.53;;
82304;SDS011;71914;47.382;8.168;2024-01-27T05:22:32;3.30;;;2.30;;
82304;SDS011;71914;47.382;8.168;2024-01-27T05:24:58;7.40;;;2.97;;
82304;SDS011;71914;47.382;8.168;2024-01-27T05:27:23;6.95;;;3.00;;
82304;SDS011;71914;47.382;8.168;2024-01-27T05:29:49;5.30;;;2.60;;
82304;SDS011;71914;47.382;8.168;2024-01-27T05:32:16;7.68;;;2.90;;
82304;SDS011;71914;47.382;8.168;2024-01-27T05:34:41;5.53;;;2.50;;
82304;SDS011;71914;47.382;8.168;2024-01-27T05:37:07;4.28;;;2.47;;
82304;SDS011;71914;47.382;8.168;2024-01-27T05:39:32;2.47;;;1.55;;
82304;SDS011;71914;47.382;8.168;2024-01-27T05:41:59;7.22;;;2.33;;
82304;SDS011;71914;47.382;8.168;2024-01-27T05:44:24;3.20;;;1.95;;
82304;SDS011;71914;47.382;8.168;2024-01-27T05:46:50;6.63;;;2.50;;
82304;SDS011;71914;47.382;8.168;2024-01-27T05:49:17;5.82;;;2.42;;
82304;SDS011;71914;47.382;8.168;2024-01-27T05:51:42;4.82;;;2.28;;
82304;SDS011;71914;47.382;8.168;2024-01-27T05:54:08;2.17;;;1.60;;
82304;SDS011;71914;47.382;8.168;2024-01-27T05:56:35;5.82;;;1.88;;
82304;SDS011;71914;47.382;8.168;2024-01-27T05:59:01;3.33;;;1.60;;
82304;SDS011;71914;47.382;8.168;2024-01-27T06:01:28;4.50;;;1.95;;
82304;SDS011;71914;47.382;8.168;2024-01-27T06:03:53;2.70;;;1.88;;
82304;SDS011;71914;47.382;8.168;2024-01-27T06:06:20;3.70;;;2.25;;
82304;SDS011;71914;47.382;8.168;2024-01-27T06:08:46;4.10;;;2.13;;
82304;SDS011;71914;47.382;8.168;2024-01-27T06:11:12;7.70;;;1.90;;
82304;SDS011;71914;47.382;8.168;2024-01-27T06:13:37;5.53;;;2.50;;
82304;SDS011;71914;47.382;8.168;2024-01-27T06:16:06;1.92;;;1.30;;
82304;SDS011;71914;47.382;8.168;2024-01-27T06:18:34;2.90;;;1.30;;
82304;SDS011;71914;47.382;8.168;2024-01-27T06:20:59;5.88;;;2.08;;
82304;SDS011;71914;47.382;8.168;2024-01-27T06:23:26;2.95;;;1.55;;
82304;SDS011;71914;47.382;8.168;2024-01-27T06:25:52;8.55;;;2.60;;
82304;SDS011;71914;47.382;8.168;2024-01-27T06:28:17;7.75;;;3.00;;
82304;SDS011;71914;47.382;8.168;2024-01-27T06:30:43;4.78;;;2.30;;
82304;SDS011;71914;47.382;8.168;2024-01-27T06:33:09;6.25;;;2.72;;
82304;SDS011;71914;47.382;8.168;2024-01-27T06:35:34;5.65;;;3.22;;
82304;SDS011;71914;47.382;8.168;2024-01-27T06:38:00;11.25;;;6.75;;
82304;SDS011;71914;47.382;8.168;2024-01-27T06:40:27;8.65;;;5.60;;
82304;SDS011;71914;47.382;8.168;2024-01-27T06:42:52;10.75;;;5.43;;
82304;SDS011;71914;47.382;8.168;2024-01-27T06:45:19;3.72;;;2.53;;
82304;SDS011;71914;47.382;8.168;2024-01-27T06:47:44;6.63;;;2.88;;
82304;SDS011;71914;47.382;8.168;2024-01-27T06:50:10;6.65;;;2.83;;
82304;SDS011;71914;47.382;8.168;2024-01-27T06:52:36;5.55;;;2.60;;
82304;SDS011;71914;47.382;8.168;2024-01-27T06:55:01;9.48;;;3.15;;
82304;SDS011;71914;47.382;8.168;2024-01-27T06:57:29;6.90;;;3.00;;
82304;SDS011;71914;47.382;8.168;2024-01-27T06:59:54;6.57;;;3.10;;
82304;SDS011;71914;47.382;8.168;2024-01-27T07:02:23;4.10;;;2.78;;
82304;SDS011;71914;47.382;8.168;2024-01-27T07:04:49;5.93;;;3.33;;
82304;SDS011;71914;47.382;8.168;2024-01-27T07:07:14;7.50;;;3.20;;
82304;SDS011;71914;47.382;8.168;2024-01-27T07:09:40;6.40;;;2.40;;
82304;SDS011;71914;47.382;8.168;2024-01-27T07:12:06;3.53;;;2.42;;
82304;SDS011;71914;47.382;8.168;2024-01-27T07:14:34;9.93;;;2.45;;
82304;SDS011;71914;47.382;8.168;2024-01-27T07:17:01;2.45;;;1.45;;
82304;SDS011;71914;47.382;8.168;2024-01-27T07:19:26;4.75;;;2.65;;
82304;SDS011;71914;47.382;8.168;2024-01-27T07:21:53;4.20;;;2.53;;
82304;SDS011;71914;47.382;8.168;2024-01-27T07:24:18;6.65;;;4.05;;
82304;SDS011;71914;47.382;8.168;2024-01-27T07:26:45;8.48;;;4.45;;
82304;SDS011;71914;47.382;8.168;2024-01-27T07:29:10;8.48;;;3.72;;
82304;SDS011;71914;47.382;8.168;2024-01-27T07:31:37;4.47;;;3.05;;
82304;SDS011;71914;47.382;8.168;2024-01-27T07:36:31;3.13;;;1.73;;
82304;SDS011;71914;47.382;8.168;2024-01-27T07:38:57;4.60;;;2.50;;
82304;SDS011;71914;47.382;8.168;2024-01-27T07:41:23;2.65;;;1.67;;
82304;SDS011;71914;47.382;8.168;2024-01-27T07:43:48;15.88;;;2.13;;
82304;SDS011;71914;47.382;8.168;2024-01-27T07:46:14;4.70;;;2.70;;
82304;SDS011;71914;47.382;8.168;2024-01-27T07:48:41;9.68;;;4.55;;
82304;SDS011;71914;47.382;8.168;2024-01-27T07:51:07;9.05;;;4.65;;
82304;SDS011;71914;47.382;8.168;2024-01-27T07:53:33;8.70;;;3.67;;
82304;SDS011;71914;47.382;8.168;2024-01-27T07:55:58;9.48;;;5.18;;
82304;SDS011;71914;47.382;8.168;2024-01-27T07:58:24;4.45;;;2.83;;
82304;SDS011;71914;47.382;8.168;2024-01-27T08:00:50;8.93;;;4.20;;
82304;SDS011;71914;47.382;8.168;2024-01-27T08:03:16;9.40;;;3.47;;
82304;SDS011;71914;47.382;8.168;2024-01-27T08:05:43;5.05;;;3.08;;
82304;SDS011;71914;47.382;8.168;2024-01-27T08:08:09;5.53;;;2.80;;
82304;SDS011;71914;47.382;8.168;2024-01-27T08:10:34;4.15;;;2.80;;
82304;SDS011;71914;47.382;8.168;2024-01-27T08:13:01;7.32;;;3.42;;
82304;SDS011;71914;47.382;8.168;2024-01-27T08:15:27;7.57;;;3.13;;
82304;SDS011;71914;47.382;8.168;2024-01-27T08:17:52;7.68;;;4.50;;
82304;SDS011;71914;47.382;8.168;2024-01-27T08:20:18;11.85;;;4.93;;
82304;SDS011;71914;47.382;8.168;2024-01-27T08:22:45;7.97;;;4.63;;
82304;SDS011;71914;47.382;8.168;2024-01-27T08:27:36;7.82;;;4.50;;
82304;SDS011;71914;47.382;8.168;2024-01-27T08:30:02;14.45;;;5.85;;
82304;SDS011;71914;47.382;8.168;2024-01-27T08:32:28;12.15;;;6.32;;
82304;SDS011;71914;47.382;8.168;2024-01-27T08:34:54;18.25;;;8.02;;
82304;SDS011;71914;47.382;8.168;2024-01-27T08:37:19;11.77;;;5.35;;
82304;SDS011;71914;47.382;8.168;2024-01-27T08:39:47;13.35;;;5.65;;
82304;SDS011;71914;47.382;8.168;2024-01-27T08:44:38;4.97;;;2.40;;
82304;SDS011;71914;47.382;8.168;2024-01-27T08:47:04;10.57;;;3.53;;
82304;SDS011;71914;47.382;8.168;2024-01-27T08:49:30;2.10;;;1.65;;
82304;SDS011;71914;47.382;8.168;2024-01-27T08:51:56;4.13;;;2.17;;
82304;SDS011;71914;47.382;8.168;2024-01-27T08:54:22;9.63;;;3.33;;
82304;SDS011;71914;47.382;8.168;2024-01-27T08:56:49;6.50;;;3.53;;
82304;SDS011;71914;47.382;8.168;2024-01-27T08:59:15;6.38;;;3.30;;
82304;SDS011;71914;47.382;8.168;2024-01-27T09:01:41;9.63;;;3.85;;
82304;SDS011;71914;47.382;8.168;2024-01-27T09:04:07;4.10;;;3.00;;
82304;SDS011;71914;47.382;8.168;2024-01-27T09:06:32;5.50;;;2.25;;
82304;SDS011;71914;47.382;8.168;2024-01-27T09:08:58;5.38;;;2.65;;
82304;SDS011;71914;47.382;8.168;2024-01-27T09:11:24;4.65;;;3.15;;
82304;SDS011;71914;47.382;8.168;2024-01-27T09:13:53;9.15;;;3.80;;
82304;SDS011;71914;47.382;8.168;2024-01-27T09:16:19;3.45;;;1.73;;
82304;SDS011;71914;47.382;8.168;2024-01-27T09:18:45;6.35;;;3.28;;
82304;SDS011;71914;47.382;8.168;2024-01-27T09:21:11;7.32;;;3.58;;
82304;SDS011;71914;47.382;8.168;2024-01-27T09:23:37;6.45;;;2.83;;
82304;SDS011;71914;47.382;8.168;2024-01-27T09:26:02;5.10;;;2.70;;
82304;SDS011;71914;47.382;8.168;2024-01-27T09:28:29;4.35;;;2.17;;
82304;SDS011;71914;47.382;8.168;2024-01-27T09:30:56;10.07;;;3.45;;
82304;SDS011;71914;47.382;8.168;2024-01-27T09:33:21;6.68;;;3.30;;
82304;SDS011;71914;47.382;8.168;2024-01-27T09:35:48;7.57;;;3.13;;
82304;SDS011;71914;47.382;8.168;2024-01-27T09:38:13;4.43;;;1.55;;
82304;SDS011;71914;47.382;8.168;2024-01-27T09:40:39;5.45;;;2.80;;
82304;SDS011;71914;47.382;8.168;2024-01-27T09:43:05;6.30;;;2.50;;
82304;SDS011;71914;47.382;8.168;2024-01-27T09:45:32;4.43;;;3.20;;
82304;SDS011;71914;47.382;8.168;2024-01-27T09:47:59;6.55;;;3.80;;
82304;SDS011;71914;47.382;8.168;2024-01-27T09:50:26;5.18;;;2.80;;
82304;SDS011;71914;47.382;8.168;2024-01-27T09:52:51;4.47;;;2.33;;
82304;SDS011;71914;47.382;8.168;2024-01-27T09:55:18;2.63;;;1.63;;
82304;SDS011;71914;47.382;8.168;2024-01-27T09:57:44;5.57;;;2.47;;
82304;SDS011;71914;47.382;8.168;2024-01-27T10:00:10;4.35;;;2.53;;
82304;SDS011;71914;47.382;8.168;2024-01-27T10:02:37;3.15;;;2.08;;
82304;SDS011;71914;47.382;8.168;2024-01-27T10:05:07;5.55;;;3.38;;
82304;SDS011;71914;47.382;8.168;2024-01-27T10:07:34;4.47;;;2.88;;
82304;SDS011;71914;47.382;8.168;2024-01-27T10:09:59;6.57;;;2.92;;
82304;SDS011;71914;47.382;8.168;2024-01-27T10:12:25;2.88;;;1.88;;
82304;SDS011;71914;47.382;8.168;2024-01-27T10:14:53;3.78;;;2.35;;
82304;SDS011;71914;47.382;8.168;2024-01-27T10:17:21;4.80;;;2.53;;
82304;SDS011;71914;47.382;8.168;2024-01-27T10:19:58;8.02;;;2.67;;
82304;SDS011;71914;47.382;8.168;2024-01-27T10:22:27;5.82;;;2.70;;
82304;SDS011;71914;47.382;8.168;2024-01-27T10:24:53;4.80;;;2.00;;
82304;SDS011;71914;47.382;8.168;2024-01-27T10:27:18;6.05;;;2.33;;
82304;SDS011;71914;47.382;8.168;2024-01-27T10:29:51;4.50;;;2.20;;
82304;SDS011;71914;47.382;8.168;2024-01-27T10:32:17;3.28;;;2.28;;
82304;SDS011;71914;47.382;8.168;2024-01-27T10:34:42;7.53;;;3.10;;
82304;SDS011;71914;47.382;8.168;2024-01-27T10:37:09;2.95;;;2.35;;
82304;SDS011;71914;47.382;8.168;2024-01-27T10:39:38;5.93;;;2.60;;
82304;SDS011;71914;47.382;8.168;2024-01-27T10:42:04;7.50;;;2.20;;
82304;SDS011;71914;47.382;8.168;2024-01-27T10:44:31;3.65;;;2.33;;
82304;SDS011;71914;47.382;8.168;2024-01-27T10:46:58;7.28;;;2.67;;
82304;SDS011;71914;47.382;8.168;2024-01-27T10:49:26;5.38;;;2.88;;
82304;SDS011;71914;47.382;8.168;2024-01-27T10:51:55;3.15;;;2.28;;
82304;SDS011;71914;47.382;8.168;2024-01-27T10:54:23;4.38;;;2.28;;
82304;SDS011;71914;47.382;8.168;2024-01-27T10:56:53;13.75;;;3.42;;
82304;SDS011;71914;47.382;8.168;2024-01-27T10:59:20;5.90;;;2.97;;
82304;SDS011;71914;47.382;8.168;2024-01-27T11:01:48;3.78;;;2.25;;
82304;SDS011;71914;47.382;8.168;2024-01-27T11:04:16;5.07;;;2.35;;
82304;SDS011;71914;47.382;8.168;2024-01-27T11:06:42;5.18;;;2.10;;
82304;SDS011;71914;47.382;8.168;2024-01-27T11:09:09;5.32;;;2.42;;
82304;SDS011;71914;47.382;8.168;2024-01-27T11:11:37;7.55;;;2.97;;
82304;SDS011;71914;47.382;8.168;2024-01-27T11:14:05;4.25;;;2.17;;
82304;SDS011;71914;47.382;8.168;2024-01-27T11:16:31;4.47;;;2.53;;
82304;SDS011;71914;47.382;8.168;2024-01-27T11:18:56;4.28;;;2.50;;
82304;SDS011;71914;47.382;8.168;2024-01-27T11:21:22;6.10;;;3.22;;
82304;SDS011;71914;47.382;8.168;2024-01-27T11:23:48;5.68;;;2.40;;
82304;SDS011;71914;47.382;8.168;2024-01-27T11:26:17;4.20;;;2.50;;
82304;SDS011;71914;47.382;8.168;2024-01-27T11:28:44;4.13;;;2.25;;
82304;SDS011;71914;47.382;8.168;2024-01-27T11:31:11;4.78;;;2.38;;
82304;SDS011;71914;47.382;8.168;2024-01-27T11:33:43;6.28;;;3.03;;
82304;SDS011;71914;47.382;8.168;2024-01-27T11:36:17;6.88;;;2.80;;
82304;SDS011;71914;47.382;8.168;2024-01-27T11:38:46;6.75;;;2.97;;
82304;SDS011;71914;47.382;8.168;2024-01-27T11:41:11;5.13;;;2.67;;
82304;SDS011;71914;47.382;8.168;2024-01-27T11:43:37;6.05;;;3.00;;
82304;SDS011;71914;47.382;8.168;2024-01-27T11:46:03;5.05;;;3.25;;
82304;SDS011;71914;47.382;8.168;2024-01-27T11:48:29;18.65;;;8.77;;
82304;SDS011;71914;47.382;8.168;2024-01-27T11:53:30;7.78;;;3.17;;
82304;SDS011;71914;47.382;8.168;2024-01-27T11:55:56;6.07;;;3.05;;
82304;SDS011;71914;47.382;8.168;2024-01-27T11:58:22;7.05;;;2.75;;
82304;SDS011;71914;47.382;8.168;2024-01-27T12:00:48;5.57;;;2.97;;
82304;SDS011;71914;47.382;8.168;2024-01-27T12:03:13;6.10;;;3.08;;
82304;SDS011;71914;47.382;8.168;2024-01-27T12:05:40;4.68;;;2.75;;
82304;SDS011;71914;47.382;8.168;2024-01-27T12:10:33;5.05;;;2.83;;
82304;SDS011;71914;47.382;8.168;2024-01-27T12:12:58;4.90;;;2.90;;
82304;SDS011;71914;47.382;8.168;2024-01-27T12:15:25;6.00;;;2.70;;
82304;SDS011;71914;47.382;8.168;2024-01-27T12:17:51;6.72;;;3.13;;
82304;SDS011;71914;47.382;8.168;2024-01-27T12:20:17;4.75;;;3.25;;
82304;SDS011;71914;47.382;8.168;2024-01-27T12:22:44;5.38;;;2.20;;
82304;SDS011;71914;47.382;8.168;2024-01-27T12:27:36;5.68;;;2.42;;
82304;SDS011;71914;47.382;8.168;2024-01-27T12:34:55;2.78;;;1.52;;
82304;SDS011;71914;47.382;8.168;2024-01-27T12:37:23;4.85;;;2.70;;
82304;SDS011;71914;47.382;8.168;2024-01-27T12:39:51;4.47;;;3.20;;
82304;SDS011;71914;47.382;8.168;2024-01-27T12:47:09;6.57;;;2.97;;
82304;SDS011;71914;47.382;8.168;2024-01-27T12:49:35;5.28;;;2.20;;
82304;SDS011;71914;47.382;8.168;2024-01-27T12:52:01;6.57;;;1.65;;
82304;SDS011;71914;47.382;8.168;2024-01-27T12:54:27;8.32;;;2.88;;
82304;SDS011;71914;47.382;8.168;2024-01-27T12:56:54;4.22;;;2.47;;
82304;SDS011;71914;47.382;8.168;2024-01-27T12:59:21;5.28;;;2.65;;
82304;SDS011;71914;47.382;8.168;2024-01-27T13:01:46;3.92;;;2.17;;
82304;SDS011;71914;47.382;8.168;2024-01-27T13:04:12;4.93;;;2.25;;
82304;SDS011;71914;47.382;8.168;2024-01-27T13:06:38;4.80;;;2.70;;
82304;SDS011;71914;47.382;8.168;2024-01-27T13:09:04;3.42;;;2.35;;
82304;SDS011;71914;47.382;8.168;2024-01-27T13:11:29;4.18;;;1.90;;
82304;SDS011;71914;47.382;8.168;2024-01-27T13:13:56;5.13;;;3.17;;
82304;SDS011;71914;47.382;8.168;2024-01-27T13:16:22;5.57;;;2.67;;
82304;SDS011;71914;47.382;8.168;2024-01-27T13:18:48;7.30;;;2.92;;
82304;SDS011;71914;47.382;8.168;2024-01-27T13:21:13;5.22;;;2.33;;
82304;SDS011;71914;47.382;8.168;2024-01-27T13:23:39;3.58;;;2.22;;
82304;SDS011;71914;47.382;8.168;2024-01-27T13:26:04;5.70;;;2.40;;
82304;SDS011;71914;47.382;8.168;2024-01-27T13:28:30;2.55;;;1.70;;
82304;SDS011;71914;47.382;8.168;2024-01-27T13:30:58;4.22;;;2.55;;
82304;SDS011;71914;47.382;8.168;2024-01-27T13:33:23;3.65;;;2.13;;
82304;SDS011;71914;47.382;8.168;2024-01-27T13:35:49;4.45;;;2.70;;
82304;SDS011;71914;47.382;8.168;2024-01-27T13:38:15;3.22;;;2.05;;
82304;SDS011;71914;47.382;8.168;2024-01-27T13:40:40;5.93;;;2.63;;
82304;SDS011;71914;47.382;8.168;2024-01-27T13:43:07;5.70;;;2.42;;
82304;SDS011;71914;47.382;8.168;2024-01-27T13:45:33;4.88;;;2.60;;
82304;SDS011;71914;47.382;8.168;2024-01-27T13:48:00;4.53;;;2.42;;
82304;SDS011;71914;47.382;8.168;2024-01-27T13:50:25;3.78;;;2.30;;
82304;SDS011;71914;47.382;8.168;2024-01-27T13:52:51;5.18;;;2.35;;
82304;SDS011;71914;47.382;8.168;2024-01-27T13:55:17;4.28;;;1.88;;
82304;SDS011;71914;47.382;8.168;2024-01-27T13:57:43;4.10;;;2.28;;
82304;SDS011;71914;47.382;8.168;2024-01-27T14:00:10;6.22;;;2.60;;
82304;SDS011;71914;47.382;8.168;2024-01-27T14:02:37;7.78;;;3.97;;
82304;SDS011;71914;47.382;8.168;2024-01-27T14:05:04;7.15;;;3.30;;
82304;SDS011;71914;47.382;8.168;2024-01-27T14:07:31;7.85;;;3.05;;
82304;SDS011;71914;47.382;8.168;2024-01-27T14:09:57;2.45;;;1.63;;
82304;SDS011;71914;47.382;8.168;2024-01-27T14:12:23;9.15;;;2.63;;
82304;SDS011;71914;47.382;8.168;2024-01-27T14:14:49;5.10;;;2.97;;
82304;SDS011;71914;47.382;8.168;2024-01-27T14:17:15;6.47;;;2.78;;
82304;SDS011;71914;47.382;8.168;2024-01-27T14:19:41;6.22;;;2.92;;
82304;SDS011;71914;47.382;8.168;2024-01-27T14:22:08;6.15;;;2.50;;
82304;SDS011;71914;47.382;8.168;2024-01-27T14:24:34;5.05;;;2.53;;
82304;SDS011;71914;47.382;8.168;2024-01-27T14:26:59;5.32;;;2.63;;
82304;SDS011;71914;47.382;8.168;2024-01-27T14:29:25;5.65;;;2.42;;
82304;SDS011;71914;47.382;8.168;2024-01-27T14:31:51;3.55;;;1.98;;
82304;SDS011;71914;47.382;8.168;2024-01-27T14:34:16;6.70;;;2.30;;
82304;SDS011;71914;47.382;8.168;2024-01-27T14:36:42;5.90;;;2.38;;
82304;SDS011;71914;47.382;8.168;2024-01-27T14:39:10;4.55;;;2.58;;
82304;SDS011;71914;47.382;8.168;2024-01-27T14:41:36;5.05;;;2.63;;
82304;SDS011;71914;47.382;8.168;2024-01-27T14:44:02;5.70;;;2.78;;
82304;SDS011;71914;47.382;8.168;2024-01-27T14:46:28;5.38;;;3.10;;
82304;SDS011;71914;47.382;8.168;2024-01-27T14:48:54;4.28;;;2.25;;
82304;SDS011;71914;47.382;8.168;2024-01-27T14:51:19;5.88;;;2.67;;
82304;SDS011;71914;47.382;8.168;2024-01-27T14:53:46;6.13;;;2.83;;
82304;SDS011;71914;47.382;8.168;2024-01-27T14:56:13;3.92;;;2.20;;
82304;SDS011;71914;47.382;8.168;2024-01-27T14:58:38;3.60;;;1.90;;
82304;SDS011;71914;47.382;8.168;2024-01-27T15:01:05;7.05;;;2.88;;
82304;SDS011;71914;47.382;8.168;2024-01-27T15:03:30;4.65;;;2.08;;
82304;SDS011;71914;47.382;8.168;2024-01-27T15:05:56;4.75;;;2.53;;
82304;SDS011;71914;47.382;8.168;2024-01-27T15:08:23;4.35;;;2.22;;
82304;SDS011;71914;47.382;8.168;2024-01-27T15:10:49;5.38;;;3.13;;
82304;SDS011;71914;47.382;8.168;2024-01-27T15:13:16;4.45;;;1.83;;
82304;SDS011;71914;47.382;8.168;2024-01-27T15:15:48;4.45;;;2.35;;
82304;SDS011;71914;47.382;8.168;2024-01-27T15:18:14;3.90;;;1.67;;
82304;SDS011;71914;47.382;8.168;2024-01-27T15:25:32;3.60;;;2.20;;